Terminal Aerodrome Forecast
Issued by NWS

Home | Current Version | Previous Version | Text Only | Print | Product List | Glossary On
Versions: 1 2 3 4 5 6 7 8 9 10 11 12 13 14 15 16 17 18 19 20 21 22 23 24 25
000
FTUS43 KLOT 271145
TAFGYY
TAF
KGYY 271145Z 2712/2812 03006KT P6SM BKN005
     FM271600 01004KT P6SM SCT008
     FM271900 04006KT P6SM FEW035 BKN250
     FM280400 09006KT P6SM BKN120
     FM280900 08005KT 6SM SHRA OVC030 PROB30 2809/2811 4SM TSRA
      OVC015CB=

USA.gov is the U.S. government's official web portal to all federal, state and local government web resources and services.